createdAt,value
2019-03-28T00:00:02.416Z,96747.95
2019-03-28T00:02:30.335Z,96743.64
2019-03-28T00:04:58.183Z,96750.92
2019-03-28T00:07:26.124Z,96754.00
2019-03-28T00:09:53.999Z,96755.88
2019-03-28T00:12:21.852Z,96756.77
2019-03-28T00:14:49.735Z,96748.26
2019-03-28T00:17:17.555Z,96755.73
2019-03-28T00:19:45.444Z,96749.76
2019-03-28T00:22:18.233Z,96749.23
2019-03-28T00:24:54.655Z,96749.42
2019-03-28T00:27:22.516Z,96746.31
2019-03-28T00:29:50.386Z,96742.92
2019-03-28T00:32:18.238Z,96743.44
2019-03-28T00:34:46.178Z,96740.78
2019-03-28T00:37:14.095Z,96744.28
2019-03-28T00:39:42.239Z,96742.10
2019-03-28T00:42:10.272Z,96741.43
2019-03-28T00:44:38.246Z,96743.64
2019-03-28T00:47:06.095Z,96742.25
2019-03-28T00:49:34.021Z,96740.05
2019-03-28T00:52:02.006Z,96733.75
2019-03-28T00:54:29.838Z,96727.39
2019-03-28T00:56:57.718Z,96735.24
2019-03-28T00:59:25.635Z,96733.18
2019-03-28T01:01:53.544Z,96727.05
2019-03-28T01:04:21.339Z,96729.52
2019-03-28T01:06:49.179Z,96730.84
2019-03-28T01:09:17.043Z,96727.33
2019-03-28T01:11:45.060Z,96724.08
2019-03-28T01:14:12.963Z,96723.04
2019-03-28T01:16:40.775Z,96720.55
2019-03-28T01:19:08.695Z,96726.42
2019-03-28T01:21:36.580Z,96726.42
2019-03-28T01:24:04.475Z,96726.23
2019-03-28T01:26:32.318Z,96732.27
2019-03-28T01:29:00.178Z,96741.94
2019-03-28T01:31:28.055Z,96739.48
2019-03-28T01:33:55.934Z,96738.32
2019-03-28T01:36:25.737Z,96736.63
2019-03-28T01:38:53.654Z,96735.64
2019-03-28T01:41:21.515Z,96730.84
2019-03-28T01:43:49.410Z,96743.04
2019-03-28T01:46:17.314Z,96734.93
2019-03-28T01:48:45.174Z,96737.84
2019-03-28T01:51:13.035Z,96731.94
2019-03-28T01:53:40.959Z,96735.09
2019-03-28T01:56:08.875Z,96733.34
2019-03-28T01:58:36.735Z,96730.23
2019-03-28T02:01:04.716Z,96731.09
2019-03-28T02:03:32.582Z,96734.85
2019-03-28T02:06:00.466Z,96733.21
2019-03-28T02:08:28.326Z,96735.09
2019-03-28T02:10:56.157Z,96737.45
2019-03-28T02:13:24.035Z,96735.21
2019-03-28T02:15:51.918Z,96736.29
2019-03-28T02:18:19.763Z,96733.94
2019-03-28T02:20:47.675Z,96728.47
2019-03-28T02:23:15.505Z,96730.38
2019-03-28T02:25:43.496Z,96724.70
2019-03-28T02:28:11.666Z,96736.84
2019-03-28T02:30:39.517Z,96732.00
2019-03-28T02:33:07.364Z,96734.36
2019-03-28T02:35:35.274Z,96724.67
2019-03-28T02:38:03.085Z,96729.75
2019-03-28T02:40:30.984Z,96727.78
2019-03-28T02:42:58.809Z,96724.61
2019-03-28T02:45:26.623Z,96727.87
2019-03-28T02:47:54.536Z,96725.14
2019-03-28T02:50:23.164Z,96719.11
2019-03-28T02:52:51.004Z,96723.77
2019-03-28T02:55:18.836Z,96729.25
2019-03-28T02:57:46.745Z,96726.59
2019-03-28T03:00:14.834Z,96722.52
2019-03-28T03:02:42.687Z,96727.00
2019-03-28T03:05:10.537Z,96726.05
2019-03-28T03:07:38.415Z,96726.31
2019-03-28T03:10:07.384Z,96725.46
2019-03-28T03:12:35.235Z,96725.59
2019-03-28T03:15:03.951Z,96731.89
2019-03-28T03:17:31.835Z,96734.05
2019-03-28T03:19:59.696Z,96727.00
2019-03-28T03:22:28.615Z,96727.80
2019-03-28T03:24:56.777Z,96729.60
2019-03-28T03:27:24.655Z,96724.69
2019-03-28T03:29:52.439Z,96724.76
2019-03-28T03:32:20.296Z,96726.25
2019-03-28T03:34:48.165Z,96721.77
2019-03-28T03:37:15.957Z,96726.27
2019-03-28T03:39:43.797Z,96722.97
2019-03-28T03:42:11.708Z,96726.74
2019-03-28T03:44:39.582Z,96719.70
2019-03-28T03:47:07.442Z,96717.29
2019-03-28T03:49:35.328Z,96720.59
2019-03-28T03:52:03.205Z,96725.05
2019-03-28T03:54:31.066Z,96721.90
2019-03-28T03:56:58.999Z,96725.77
2019-03-28T03:59:26.940Z,96727.09
2019-03-28T04:01:54.802Z,96731.03
2019-03-28T04:04:22.720Z,96728.05
2019-03-28T04:06:50.567Z,96731.39
2019-03-28T04:09:18.444Z,96731.23
2019-03-28T04:11:46.334Z,96726.00
2019-03-28T04:14:14.229Z,96721.84
2019-03-28T04:16:42.067Z,96722.48
2019-03-28T04:19:09.943Z,96719.92
2019-03-28T04:21:37.863Z,96724.70
2019-03-28T04:24:05.743Z,96723.31
2019-03-28T04:26:33.631Z,96722.30
2019-03-28T04:29:01.558Z,96717.31
2019-03-28T04:31:29.424Z,96725.36
2019-03-28T04:33:57.282Z,96726.13
2019-03-28T04:36:25.223Z,96725.89
2019-03-28T04:38:53.097Z,96724.06
2019-03-28T04:41:20.985Z,96726.94
2019-03-28T04:43:48.862Z,96729.98
2019-03-28T04:46:16.744Z,96735.23
2019-03-28T04:48:44.647Z,96733.93
2019-03-28T04:51:12.506Z,96740.13
2019-03-28T04:53:40.422Z,96735.47
2019-03-28T04:56:08.302Z,96739.17
2019-03-28T04:58:44.415Z,96741.11
2019-03-28T05:01:06.362Z,96743.02
2019-03-28T05:03:34.267Z,96747.66
2019-03-28T05:06:02.202Z,96743.36
2019-03-28T05:08:30.042Z,96741.80
2019-03-28T05:10:57.975Z,96745.84
2019-03-28T05:13:25.807Z,96752.16
2019-03-28T05:15:53.721Z,96752.05
2019-03-28T05:18:21.707Z,96753.19
2019-03-28T05:20:49.542Z,96746.12
2019-03-28T05:23:17.465Z,96750.75
2019-03-28T05:25:46.502Z,96757.52
2019-03-28T05:28:14.361Z,96754.21
2019-03-28T05:30:42.288Z,96758.27
2019-03-28T05:33:11.183Z,96762.05
2019-03-28T05:35:39.083Z,96756.40
2019-03-28T05:38:06.982Z,96752.83
2019-03-28T05:40:34.904Z,96751.58
2019-03-28T05:43:02.785Z,96760.96
2019-03-28T05:45:30.657Z,96756.30
2019-03-28T05:48:00.296Z,96756.40
2019-03-28T05:50:28.321Z,96762.16
2019-03-28T05:52:56.272Z,96757.30
2019-03-28T05:55:24.165Z,96759.79
2019-03-28T05:57:52.121Z,96760.69
2019-03-28T06:00:20.111Z,96768.48
2019-03-28T06:02:47.949Z,96766.06
2019-03-28T06:05:15.848Z,96774.92
2019-03-28T06:07:43.687Z,96776.65
2019-03-28T06:10:11.889Z,96770.82
2019-03-28T06:12:39.771Z,96772.80
2019-03-28T06:15:08.150Z,96773.87
2019-03-28T06:17:36.060Z,96775.13
2019-03-28T06:20:05.276Z,96781.31
2019-03-28T06:22:33.201Z,96784.16
2019-03-28T06:25:03.910Z,96783.25
2019-03-28T06:27:30.981Z,96783.57
2019-03-28T06:30:01.897Z,96785.73
2019-03-28T06:32:41.964Z,96787.20
2019-03-28T06:34:58.502Z,96781.12
2019-03-28T06:37:26.385Z,96785.34
2019-03-28T06:39:54.263Z,96781.41
2019-03-28T06:42:22.266Z,96788.20
2019-03-28T06:44:50.130Z,96781.48
2019-03-28T06:47:20.952Z,96786.31
2019-03-28T06:49:47.882Z,96784.87
2019-03-28T06:52:15.744Z,96781.98
2019-03-28T06:54:43.642Z,96779.97
2019-03-28T06:57:11.800Z,96784.55
2019-03-28T06:59:39.662Z,96787.31
2019-03-28T07:02:07.521Z,96788.56
2019-03-28T07:04:35.462Z,96788.73
2019-03-28T07:07:03.344Z,96786.08
2019-03-28T07:09:31.320Z,96788.37
2019-03-28T07:11:59.222Z,96784.48
2019-03-28T07:14:27.104Z,96784.47
2019-03-28T07:16:55.009Z,96783.72
2019-03-28T07:19:22.859Z,96788.25
2019-03-28T07:21:50.746Z,96792.15
2019-03-28T07:24:18.707Z,96791.81
2019-03-28T07:26:46.561Z,96784.36
2019-03-28T07:29:14.451Z,96788.52
2019-03-28T07:31:42.368Z,96794.90
2019-03-28T07:34:13.381Z,96798.74
2019-03-28T07:36:40.128Z,96796.06
2019-03-28T07:39:08.011Z,96794.82
2019-03-28T07:41:36.290Z,96798.70
2019-03-28T07:44:04.400Z,96790.45
2019-03-28T07:46:32.353Z,96796.55
2019-03-28T07:49:00.317Z,96797.40
2019-03-28T07:51:28.240Z,96800.27
2019-03-28T07:53:56.163Z,96795.42
2019-03-28T07:56:24.467Z,96799.87
2019-03-28T07:58:52.429Z,96792.75
2019-03-28T08:01:20.362Z,96788.51
2019-03-28T08:03:48.354Z,96793.83
2019-03-28T08:06:16.269Z,96792.17
2019-03-28T08:08:44.352Z,96792.83
2019-03-28T08:11:12.372Z,96797.13
2019-03-28T08:13:40.357Z,96799.05
2019-03-28T08:16:08.309Z,96787.88
2019-03-28T08:18:36.219Z,96788.33
2019-03-28T08:21:04.292Z,96790.09
2019-03-28T08:23:35.166Z,96790.28
2019-03-28T08:26:02.110Z,96787.60
2019-03-28T08:28:30.077Z,96788.80
2019-03-28T08:30:57.987Z,96789.55
2019-03-28T08:33:26.553Z,96787.17
2019-03-28T08:35:55.481Z,96788.31
2019-03-28T08:38:23.363Z,96786.48
2019-03-28T08:40:51.678Z,96782.70
2019-03-28T08:43:19.945Z,96780.09
2019-03-28T08:45:47.863Z,96774.55
2019-03-28T08:48:15.769Z,96778.42
2019-03-28T08:50:43.629Z,96775.81
2019-03-28T08:53:12.166Z,96775.25
2019-03-28T08:55:40.040Z,96770.83
2019-03-28T08:58:07.943Z,96770.31
2019-03-28T09:00:50.770Z,96764.20
2019-03-28T09:03:05.823Z,96759.41
2019-03-28T09:05:33.765Z,96757.19
2019-03-28T09:08:01.641Z,96760.66
2019-03-28T09:10:29.480Z,96750.02
2019-03-28T09:12:57.388Z,96747.03
2019-03-28T09:15:25.307Z,96741.72
2019-03-28T09:17:53.162Z,96740.97
2019-03-28T09:20:21.021Z,96733.45
2019-03-28T09:22:48.939Z,96727.11
2019-03-28T09:25:16.800Z,96725.09
2019-03-28T09:27:44.762Z,96725.28
2019-03-28T09:30:13.155Z,96723.86
2019-03-28T09:32:41.061Z,96718.84
2019-03-28T09:35:09.502Z,96720.80
2019-03-28T09:37:37.388Z,96712.67
2019-03-28T09:40:05.414Z,96712.67
2019-03-28T09:42:33.307Z,96704.80
2019-03-28T09:45:01.202Z,96701.14
2019-03-28T09:47:29.144Z,96712.42
2019-03-28T09:49:57.022Z,96706.83
2019-03-28T09:52:24.903Z,96707.25
2019-03-28T09:54:52.780Z,96711.56
2019-03-28T09:57:20.679Z,96701.91
2019-03-28T09:59:48.545Z,96706.83
2019-03-28T10:02:16.488Z,96716.13
2019-03-28T10:04:44.380Z,96705.82
2019-03-28T10:07:12.280Z,96703.46
2019-03-28T10:09:40.182Z,96699.86
2019-03-28T10:12:08.077Z,96702.28
2019-03-28T10:14:35.961Z,96699.68
2019-03-28T10:17:03.864Z,96706.93
2019-03-28T10:19:31.802Z,96698.48
2019-03-28T10:21:59.719Z,96708.64
2019-03-28T10:24:27.592Z,96697.28
2019-03-28T10:26:55.576Z,96697.33
2019-03-28T10:29:23.441Z,96697.20
2019-03-28T10:31:51.313Z,96701.85
2019-03-28T10:34:19.347Z,96698.86
2019-03-28T10:36:47.243Z,96699.67
2019-03-28T10:39:15.167Z,96701.66
2019-03-28T10:41:43.127Z,96692.07
2019-03-28T10:44:11.088Z,96686.13
2019-03-28T10:46:39.005Z,96685.39
2019-03-28T10:49:06.891Z,96681.62
2019-03-28T10:51:34.856Z,96683.10
2019-03-28T10:54:03.089Z,96682.35
2019-03-28T10:56:31.027Z,96687.35
2019-03-28T10:58:58.930Z,96688.67
2019-03-28T11:01:46.992Z,96684.87
2019-03-28T11:03:56.706Z,96680.60
2019-03-28T11:06:24.647Z,96679.72
2019-03-28T11:08:52.549Z,96671.73
2019-03-28T11:11:20.525Z,96667.92
2019-03-28T11:13:48.466Z,96664.91
2019-03-28T11:16:16.382Z,96662.14
2019-03-28T11:18:44.330Z,96664.09
2019-03-28T11:21:12.249Z,96653.25
2019-03-28T11:23:40.203Z,96655.96
2019-03-28T11:26:08.173Z,96651.56
2019-03-28T11:28:36.204Z,96648.59
2019-03-28T11:31:04.116Z,96659.55
2019-03-28T11:33:32.133Z,96655.12
2019-03-28T11:36:00.091Z,96656.95
2019-03-28T11:38:28.790Z,96652.15
2019-03-28T11:40:56.869Z,96651.30
2019-03-28T11:43:24.872Z,96649.99
2019-03-28T11:45:52.805Z,96653.56
2019-03-28T11:48:20.793Z,96650.93
2019-03-28T11:50:48.786Z,96648.00
2019-03-28T11:53:16.709Z,96646.03
2019-03-28T11:55:44.645Z,96640.11
2019-03-28T11:58:12.605Z,96636.27
2019-03-28T12:00:40.545Z,96639.00
2019-03-28T12:03:08.448Z,96640.42
2019-03-28T12:05:36.421Z,96643.90
2019-03-28T12:08:04.325Z,96638.06
2019-03-28T12:10:32.303Z,96630.73
2019-03-28T12:13:00.193Z,96631.81
2019-03-28T12:15:28.108Z,96619.50
2019-03-28T12:17:56.076Z,96617.16
2019-03-28T12:20:23.989Z,96608.53
2019-03-28T12:22:51.991Z,96613.77
2019-03-28T12:25:19.871Z,96613.09
2019-03-28T12:27:47.808Z,96607.31
2019-03-28T12:30:16.530Z,96608.81
2019-03-28T12:32:45.412Z,96607.53
2019-03-28T12:35:13.394Z,96598.41
2019-03-28T12:37:41.427Z,96599.27
2019-03-28T12:40:10.078Z,96599.45
2019-03-28T12:42:38.027Z,96602.02
2019-03-28T12:45:08.402Z,96591.12
2019-03-28T12:47:42.310Z,96594.16
2019-03-28T12:50:07.457Z,96592.91
2019-03-28T12:52:36.553Z,96590.80
2019-03-28T12:55:04.708Z,96586.41
2019-03-28T12:57:32.630Z,96587.11
2019-03-28T13:00:00.551Z,96585.34
2019-03-28T13:02:31.809Z,96574.92
2019-03-28T13:04:58.293Z,96570.12
2019-03-28T13:07:26.210Z,96572.59
2019-03-28T13:09:54.168Z,96576.66
2019-03-28T13:12:22.126Z,96569.81
2019-03-28T13:14:50.046Z,96568.11
2019-03-28T13:17:18.009Z,96566.42
2019-03-28T13:19:45.914Z,96567.95
2019-03-28T13:22:13.867Z,96560.66
2019-03-28T13:24:41.847Z,96562.07
2019-03-28T13:27:09.786Z,96558.33
2019-03-28T13:29:37.769Z,96556.11
2019-03-28T13:32:05.733Z,96551.03
2019-03-28T13:34:33.726Z,96553.32
2019-03-28T13:37:01.707Z,96547.83
2019-03-28T13:39:29.671Z,96551.09
2019-03-28T13:41:57.595Z,96544.64
2019-03-28T13:44:25.487Z,96542.88
2019-03-28T13:46:53.475Z,96532.02
2019-03-28T13:49:21.366Z,96540.52
2019-03-28T13:51:49.304Z,96541.75
2019-03-28T13:54:17.275Z,96540.44
2019-03-28T13:56:45.268Z,96526.37
2019-03-28T13:59:13.218Z,96532.97
2019-03-28T14:01:41.123Z,96534.95
2019-03-28T14:04:09.029Z,96537.20
2019-03-28T14:06:37.027Z,96539.45
2019-03-28T14:09:06.203Z,96533.02
2019-03-28T14:11:34.190Z,96533.97
2019-03-28T14:14:02.223Z,96525.77
2019-03-28T14:16:30.172Z,96530.69
2019-03-28T14:18:58.107Z,96532.69
2019-03-28T14:21:26.046Z,96533.61
2019-03-28T14:23:54.029Z,96537.41
2019-03-28T14:26:21.987Z,96535.97
2019-03-28T14:28:50.447Z,96531.56
2019-03-28T14:31:18.584Z,96525.98
2019-03-28T14:33:46.655Z,96521.30
2019-03-28T14:36:14.645Z,96518.91
2019-03-28T14:38:42.636Z,96512.59
2019-03-28T14:41:10.650Z,96520.87
2019-03-28T14:43:38.623Z,96520.13
2019-03-28T14:46:06.557Z,96512.91
2019-03-28T14:48:34.502Z,96511.89
2019-03-28T14:51:02.649Z,96512.02
2019-03-28T14:53:30.627Z,96511.98
2019-03-28T14:55:59.149Z,96511.36
2019-03-28T14:58:28.154Z,96517.92
2019-03-28T15:00:56.216Z,96522.19
2019-03-28T15:03:26.630Z,96510.81
2019-03-28T15:05:54.319Z,96509.13
2019-03-28T15:08:22.458Z,96503.16
2019-03-28T15:10:50.651Z,96508.99
2019-03-28T15:13:18.889Z,96502.73
2019-03-28T15:15:47.033Z,96505.83
2019-03-28T15:18:15.381Z,96500.02
2019-03-28T15:20:43.533Z,96502.03
2019-03-28T15:23:11.546Z,96500.59
2019-03-28T15:25:39.507Z,96504.50
2019-03-28T15:28:07.612Z,96501.72
2019-03-28T15:30:35.669Z,96501.60
2019-03-28T15:33:03.710Z,96504.27
2019-03-28T15:35:31.822Z,96507.08
2019-03-28T15:37:59.927Z,96509.08
2019-03-28T15:40:28.091Z,96506.20
2019-03-28T15:42:56.227Z,96507.16
2019-03-28T15:45:24.704Z,96507.72
2019-03-28T15:47:52.790Z,96514.39
2019-03-28T15:50:20.928Z,96509.91
2019-03-28T15:52:49.269Z,96516.14
2019-03-28T15:55:17.956Z,96507.80
2019-03-28T15:57:45.984Z,96509.59
2019-03-28T16:00:14.336Z,96508.36
2019-03-28T16:02:42.781Z,96510.36
2019-03-28T16:05:11.977Z,96505.77
2019-03-28T16:07:40.283Z,96514.71
2019-03-28T16:10:09.714Z,96518.66
2019-03-28T16:12:37.760Z,96513.80
2019-03-28T16:15:06.736Z,96522.02
2019-03-28T16:17:34.920Z,96519.95
2019-03-28T16:20:03.296Z,96522.38
2019-03-28T16:22:31.510Z,96521.22
2019-03-28T16:24:59.530Z,96530.97
2019-03-28T16:27:27.709Z,96528.70
2019-03-28T16:29:56.047Z,96534.92
2019-03-28T16:32:24.433Z,96530.36
2019-03-28T16:34:52.795Z,96532.33
2019-03-28T16:37:21.587Z,96524.41
2019-03-28T16:39:50.257Z,96539.69
2019-03-28T16:42:18.907Z,96539.99
2019-03-28T16:44:47.128Z,96535.73
2019-03-28T16:47:15.628Z,96546.89
2019-03-28T16:49:43.982Z,96543.67
2019-03-28T16:52:12.498Z,96549.89
2019-03-28T16:54:41.000Z,96542.58
2019-03-28T16:57:09.340Z,96551.08
2019-03-28T16:59:37.642Z,96549.23
2019-03-28T17:02:06.091Z,96554.47
2019-03-28T17:04:34.266Z,96552.37
2019-03-28T17:07:02.787Z,96551.58
2019-03-28T17:09:31.982Z,96559.12
2019-03-28T17:12:00.514Z,96558.55
2019-03-28T17:14:31.199Z,96556.67
2019-03-28T17:16:59.768Z,96559.06
2019-03-28T17:19:28.301Z,96555.99
2019-03-28T17:21:56.899Z,96559.59
2019-03-28T17:24:25.431Z,96563.06
2019-03-28T17:26:53.807Z,96568.11
2019-03-28T17:29:22.280Z,96564.37
2019-03-28T17:31:50.807Z,96571.53
2019-03-28T17:34:19.176Z,96572.61
2019-03-28T17:36:47.669Z,96575.49
2019-03-28T17:39:16.068Z,96577.69
2019-03-28T17:41:44.569Z,96576.27
2019-03-28T17:44:14.464Z,96579.20
2019-03-28T17:46:43.258Z,96574.46
2019-03-28T17:49:12.033Z,96571.74
2019-03-28T17:51:40.661Z,96574.88
2019-03-28T17:54:09.227Z,96581.00
2019-03-28T17:56:37.823Z,96586.50
2019-03-28T17:59:06.349Z,96589.38
2019-03-28T18:01:34.728Z,96597.60
2019-03-28T18:04:03.304Z,96596.73
2019-03-28T18:06:31.850Z,96600.66
2019-03-28T18:09:00.434Z,96616.19
2019-03-28T18:11:28.976Z,96607.86
2019-03-28T18:13:57.664Z,96610.97
2019-03-28T18:16:26.734Z,96607.53
2019-03-28T18:18:55.308Z,96616.69
2019-03-28T18:21:23.892Z,96607.44
2019-03-28T18:23:52.497Z,96614.67
2019-03-28T18:26:21.113Z,96624.22
2019-03-28T18:28:49.618Z,96621.55
2019-03-28T18:31:19.309Z,96622.91
2019-03-28T18:33:47.866Z,96636.38
2019-03-28T18:36:16.438Z,96632.06
2019-03-28T18:38:44.976Z,96638.31
2019-03-28T18:41:13.490Z,96636.02
2019-03-28T18:43:42.152Z,96639.16
2019-03-28T18:46:10.688Z,96652.40
2019-03-28T18:48:39.308Z,96664.52
2019-03-28T18:51:07.909Z,96669.42
2019-03-28T18:53:36.381Z,96665.55
2019-03-28T18:56:05.036Z,96671.70
2019-03-28T18:58:33.523Z,96667.07
2019-03-28T19:01:02.182Z,96672.50
2019-03-28T19:03:30.684Z,96669.27
2019-03-28T19:06:01.739Z,96674.59
2019-03-28T19:08:30.383Z,96681.44
2019-03-28T19:10:58.928Z,96680.10
2019-03-28T19:13:27.532Z,96675.80
2019-03-28T19:15:56.194Z,96682.17
2019-03-28T19:18:25.105Z,96689.34
2019-03-28T19:20:54.374Z,96693.87
2019-03-28T19:23:23.049Z,96685.71
2019-03-28T19:25:52.886Z,96692.68
2019-03-28T19:28:28.725Z,96700.55
2019-03-28T19:30:52.151Z,96705.49
2019-03-28T19:33:21.252Z,96708.09
2019-03-28T19:35:51.206Z,96710.31
2019-03-28T19:38:19.755Z,96710.30
2019-03-28T19:40:48.374Z,96707.56
2019-03-28T19:43:21.073Z,96704.06
2019-03-28T19:45:47.826Z,96713.43
2019-03-28T19:48:16.439Z,96712.14
2019-03-28T19:50:45.673Z,96711.44
2019-03-28T19:53:14.203Z,96707.32
2019-03-28T19:55:42.986Z,96705.88
2019-03-28T19:58:13.589Z,96711.61
2019-03-28T20:00:44.291Z,96701.20
2019-03-28T20:03:13.328Z,96706.25
2019-03-28T20:05:47.998Z,96708.83
2019-03-28T20:08:16.097Z,96705.42
2019-03-28T20:10:43.402Z,96707.98
2019-03-28T20:13:12.071Z,96712.88
2019-03-28T20:15:40.665Z,96713.06
2019-03-28T20:18:09.818Z,96715.60
2019-03-28T20:20:38.628Z,96716.09
2019-03-28T20:23:07.355Z,96724.05
2019-03-28T20:25:35.926Z,96727.33
2019-03-28T20:28:08.591Z,96725.28
2019-03-28T20:30:37.129Z,96728.51
2019-03-28T20:33:07.249Z,96733.34
2019-03-28T20:35:35.839Z,96727.88
2019-03-28T20:38:04.472Z,96726.63
2019-03-28T20:40:32.885Z,96716.78
2019-03-28T20:43:02.808Z,96728.53
2019-03-28T20:45:31.465Z,96725.91
2019-03-28T20:47:59.979Z,96739.13
2019-03-28T20:50:31.554Z,96736.72
2019-03-28T20:52:58.787Z,96738.84
2019-03-28T20:55:27.632Z,96743.23
2019-03-28T20:57:56.488Z,96752.06
2019-03-28T21:00:36.568Z,96749.36
2019-03-28T21:03:05.110Z,96751.27
2019-03-28T21:05:35.386Z,96755.34
2019-03-28T21:08:04.045Z,96762.13
2019-03-28T21:10:33.610Z,96759.98
2019-03-28T21:13:02.305Z,96766.38
2019-03-28T21:15:30.867Z,96771.52
2019-03-28T21:17:59.503Z,96773.48
2019-03-28T21:20:28.031Z,96773.86
2019-03-28T21:22:56.466Z,96771.97
2019-03-28T21:25:25.148Z,96777.52
2019-03-28T21:27:53.647Z,96774.45
2019-03-28T21:30:22.034Z,96776.45
2019-03-28T21:32:55.651Z,96777.00
2019-03-28T21:35:20.882Z,96774.23
2019-03-28T21:37:50.214Z,96777.19
2019-03-28T21:40:19.543Z,96786.81
2019-03-28T21:42:47.876Z,96784.35
2019-03-28T21:45:16.380Z,96789.03
2019-03-28T21:47:44.801Z,96787.62
2019-03-28T21:50:13.444Z,96791.09
2019-03-28T21:52:41.829Z,96791.25
2019-03-28T21:55:11.627Z,96795.71
2019-03-28T21:57:42.504Z,96789.91
2019-03-28T22:00:10.246Z,96795.66
2019-03-28T22:02:38.877Z,96804.22
2019-03-28T22:05:07.960Z,96798.39
2019-03-28T22:07:35.905Z,96806.59
2019-03-28T22:10:08.501Z,96805.34
2019-03-28T22:12:35.020Z,96801.13
2019-03-28T22:15:03.061Z,96800.29
2019-03-28T22:17:31.061Z,96803.12
2019-03-28T22:19:58.940Z,96797.92
2019-03-28T22:22:26.875Z,96796.77
2019-03-28T22:24:54.760Z,96800.69
2019-03-28T22:27:22.661Z,96796.22
2019-03-28T22:29:50.586Z,96799.24
2019-03-28T22:32:18.462Z,96791.07
2019-03-28T22:34:46.380Z,96792.37
2019-03-28T22:37:14.310Z,96787.98
2019-03-28T22:39:42.422Z,96787.27
2019-03-28T22:42:10.743Z,96787.31
2019-03-28T22:44:38.613Z,96781.53
2019-03-28T22:47:06.501Z,96788.72
2019-03-28T22:49:34.501Z,96783.55
2019-03-28T22:52:02.499Z,96787.68
2019-03-28T22:54:30.497Z,96791.72
2019-03-28T22:56:58.621Z,96791.07
2019-03-28T22:59:27.052Z,96782.83
2019-03-28T23:01:55.186Z,96776.08
2019-03-28T23:04:24.045Z,96770.89
2019-03-28T23:06:51.970Z,96769.48
2019-03-28T23:09:19.941Z,96771.08
2019-03-28T23:11:47.892Z,96769.52
2019-03-28T23:14:15.836Z,96768.83
2019-03-28T23:16:43.722Z,96773.97
2019-03-28T23:19:12.153Z,96765.27
2019-03-28T23:21:41.009Z,96772.28
2019-03-28T23:24:09.800Z,96760.22
2019-03-28T23:26:37.660Z,96759.22
2019-03-28T23:29:05.500Z,96769.16
2019-03-28T23:31:33.420Z,96767.64
2019-03-28T23:34:01.383Z,96761.64
2019-03-28T23:36:29.680Z,96758.06
2019-03-28T23:38:57.581Z,96759.28
2019-03-28T23:41:25.529Z,96754.25
2019-03-28T23:43:53.445Z,96752.90
2019-03-28T23:46:21.283Z,96753.30
2019-03-28T23:48:49.220Z,96752.56
2019-03-28T23:51:17.080Z,96753.39
2019-03-28T23:53:45.006Z,96757.69
2019-03-28T23:56:12.899Z,96760.87
2019-03-28T23:58:40.744Z,96758.16
